Time;durP1;ratioP1;P1;durP2;ratioP2;P2;SDS_P1;SDS_P2;PMS_P1;PMS_P2;Temp;Humidity;BMP_temperature;BMP_pressure;BME280_temperature;BME280_humidity;BME280_pressure;Samples;Min_cycle;Max_cycle;Signal;HPM_P1;HPM_P2
2024/04/05 00:01:29;;;;;;;0.00;0.00;;;;;;;-139.19;100.00;56970.53;5072486;28;20104;-62
2024/04/05 00:03:55;;;;;;;0.20;0.20;;;;;;;-139.19;100.00;56970.53;5072341;28;20037;-62
2024/04/05 00:06:21;;;;;;;0.10;0.10;;;;;;;-139.19;100.00;56970.53;5072048;28;20016;-63
2024/04/05 00:08:47;;;;;;;0.17;0.17;;;;;;;-139.19;100.00;56970.53;5059325;28;20028;-63
2024/04/05 00:11:12;;;;;;;0.20;0.20;;;;;;;-139.19;100.00;56970.53;5057385;28;20032;-63
2024/04/05 00:13:38;;;;;;;4.20;0.52;;;;;;;-139.19;100.00;56970.53;5072885;28;20090;-63
2024/04/05 00:16:04;;;;;;;0.00;0.00;;;;;;;-139.19;100.00;56970.53;5072970;28;20063;-63
2024/04/05 00:18:34;;;;;;;0.20;0.20;;;;;;;-139.19;100.00;56970.53;5072055;28;20028;-63
2024/04/05 00:21:03;;;;;;;0.10;0.10;;;;;;;-139.19;100.00;56970.53;5058895;28;20534;-63
2024/04/05 00:23:29;;;;;;;0.30;0.30;;;;;;;-139.19;100.00;56970.53;5052777;28;20029;-63
2024/04/05 00:26:01;;;;;;;0.20;0.20;;;;;;;-139.19;100.00;56970.53;5052989;28;20380;-63
2024/04/05 00:28:27;;;;;;;0.20;0.20;;;;;;;-139.19;100.00;56970.53;5052743;28;20037;-63
2024/04/05 00:30:53;;;;;;;0.10;0.10;;;;;;;-139.19;100.00;56970.53;5069660;28;20172;-63
2024/04/05 00:33:18;;;;;;;0.30;0.28;;;;;;;-139.19;100.00;56970.53;5067280;28;20029;-63
2024/04/05 00:35:51;;;;;;;0.10;0.10;;;;;;;-139.19;100.00;56970.53;5052726;28;20420;-63
2024/04/05 00:38:18;;;;;;;0.10;0.10;;;;;;;-139.19;100.00;56970.53;5071909;28;20447;-63
2024/04/05 00:40:43;;;;;;;2.30;0.90;;;;;;;-139.19;100.00;56970.53;5072037;28;20387;-63
2024/04/05 00:43:09;;;;;;;0.10;0.10;;;;;;;-139.19;100.00;56970.53;5071824;28;20031;-63
2024/04/05 00:45:34;;;;;;;1.65;1.33;;;;;;;-139.19;100.00;56970.53;5075772;28;20031;-63
2024/04/05 00:48:01;;;;;;;14.35;0.65;;;;;;;-139.19;100.00;56970.53;5069508;28;20025;-63
2024/04/05 00:50:30;;;;;;;0.00;0.00;;;;;;;-139.19;100.00;56970.53;5073275;28;20043;-63
2024/04/05 00:52:58;;;;;;;0.00;0.00;;;;;;;-139.19;100.00;56970.53;5075908;28;20472;-63
2024/04/05 00:55:24;;;;;;;0.03;0.03;;;;;;;-139.19;100.00;56970.53;5075867;28;20035;-63
2024/04/05 00:57:50;;;;;;;0.00;0.00;;;;;;;-139.19;100.00;56970.53;5065094;28;20029;-63
2024/04/05 01:00:16;;;;;;;3.20;1.02;;;;;;;-139.19;100.00;56970.53;5056058;28;20028;-63
2024/04/05 01:02:41;;;;;;;0.50;0.50;;;;;;;-139.19;100.00;56970.53;5071149;28;20076;-63
2024/04/05 01:05:06;;;;;;;0.08;0.08;;;;;;;-139.19;100.00;56970.53;5057207;28;20112;-63
2024/04/05 01:07:32;;;;;;;0.10;0.10;;;;;;;-139.19;100.00;56970.53;5069290;28;20090;-63
2024/04/05 01:09:57;;;;;;;0.60;0.43;;;;;;;-139.19;100.00;56970.53;5059320;28;20036;-63
2024/04/05 01:12:23;;;;;;;0.30;0.30;;;;;;;-139.19;100.00;56970.53;5075001;28;20024;-63
2024/04/05 01:14:48;;;;;;;0.00;0.00;;;;;;;-139.19;100.00;56970.53;5075184;28;20477;-63
2024/04/05 01:17:13;;;;;;;0.00;0.00;;;;;;;-139.19;100.00;56970.53;5075043;28;20066;-63
2024/04/05 01:19:40;;;;;;;0.00;0.00;;;;;;;-139.19;100.00;56970.53;5075210;28;20376;-62
2024/04/05 01:22:11;;;;;;;0.03;0.03;;;;;;;-139.19;100.00;56970.53;5075200;28;20020;-62
2024/04/05 01:24:37;;;;;;;0.00;0.00;;;;;;;-139.19;100.00;56970.53;5074825;28;20028;-63
2024/04/05 01:27:03;;;;;;;0.10;0.10;;;;;;;-139.19;100.00;56970.53;5075014;28;20032;-62
2024/04/05 01:29:28;;;;;;;0.10;0.10;;;;;;;-139.19;100.00;56970.53;5058119;28;20029;-62
2024/04/05 01:31:54;;;;;;;2.50;0.90;;;;;;;-139.19;100.00;56970.53;5057297;28;20044;-62
2024/04/05 01:34:19;;;;;;;0.10;0.10;;;;;;;-139.19;100.00;56970.53;5073732;28;20070;-63
2024/04/05 01:36:44;;;;;;;0.30;0.15;;;;;;;-139.19;100.00;56970.53;5058314;28;20029;-62
2024/04/05 01:39:10;;;;;;;0.10;0.10;;;;;;;-139.19;100.00;56970.53;5058141;28;20040;-63
2024/04/05 01:41:35;;;;;;;0.60;0.55;;;;;;;-139.19;100.00;56970.53;5074875;28;20040;-62
2024/04/05 01:44:02;;;;;;;2.33;0.45;;;;;;;-139.19;100.00;56970.53;5065890;28;20040;-62
2024/04/05 01:46:27;;;;;;;0.30;0.30;;;;;;;-139.19;100.00;56970.53;5055457;28;20051;-62
2024/04/05 01:48:53;;;;;;;0.20;0.20;;;;;;;-139.19;100.00;56970.53;5060460;28;20472;-62
2024/04/05 01:51:18;;;;;;;0.00;0.00;;;;;;;-139.19;100.00;56970.53;5066121;28;20036;-62
2024/04/05 01:53:43;;;;;;;0.10;0.10;;;;;;;-139.19;100.00;56970.53;5057180;28;20079;-62
2024/04/05 01:56:08;;;;;;;0.10;0.10;;;;;;;-139.19;100.00;56970.53;5068589;28;20049;-62
2024/04/05 01:58:34;;;;;;;0.00;0.00;;;;;;;-139.19;100.00;56970.53;5055134;28;20041;-62
2024/04/05 02:01:03;;;;;;;0.10;0.10;;;;;;;-139.19;100.00;56970.53;5056035;28;20033;-62
2024/04/05 02:03:29;;;;;;;0.10;0.10;;;;;;;-139.19;100.00;56970.53;5055907;28;20055;-62
2024/04/05 02:05:55;;;;;;;0.00;0.00;;;;;;;-139.19;100.00;56970.53;5054716;28;20049;-62
2024/04/05 02:08:21;;;;;;;0.32;0.20;;;;;;;-139.19;100.00;56970.53;5054796;28;20083;-62
2024/04/05 02:10:46;;;;;;;0.00;0.00;;;;;;;-139.19;100.00;56970.53;5074717;28;20029;-63
2024/04/05 02:13:12;;;;;;;0.10;0.10;;;;;;;-139.19;100.00;56970.53;5072512;28;20028;-62
2024/04/05 02:15:38;;;;;;;0.10;0.10;;;;;;;-139.19;100.00;56970.53;5054749;28;20469;-63
2024/04/05 02:18:06;;;;;;;0.08;0.08;;;;;;;-139.19;100.00;56970.53;5070154;28;20051;-62
2024/04/05 02:20:31;;;;;;;0.10;0.10;;;;;;;-139.19;100.00;56970.53;5055507;28;20052;-63
2024/04/05 02:22:56;;;;;;;0.05;0.05;;;;;;;-139.19;100.00;56970.53;5054546;28;20472;-63
2024/04/05 02:25:22;;;;;;;0.10;0.10;;;;;;;-139.19;100.00;56970.53;5054722;28;20024;-62
2024/04/05 02:27:47;;;;;;;0.15;0.15;;;;;;;-139.19;100.00;56970.53;5055117;28;20029;-63
2024/04/05 02:30:12;;;;;;;0.10;0.10;;;;;;;-139.19;100.00;56970.53;5059189;28;20035;-63
2024/04/05 02:32:37;;;;;;;0.43;0.43;;;;;;;-139.19;100.00;56970.53;5068960;28;20032;-63
2024/04/05 02:35:05;;;;;;;0.40;0.30;;;;;;;-139.19;100.00;56970.53;5065254;28;20031;-63
2024/04/05 02:37:30;;;;;;;0.00;0.00;;;;;;;-139.19;100.00;56970.53;5073946;28;20400;-63
2024/04/05 02:39:55;;;;;;;0.20;0.20;;;;;;;-139.19;100.00;56970.53;5072198;28;20040;-63
2024/04/05 02:42:21;;;;;;;0.00;0.00;;;;;;;-139.19;100.00;56970.53;5073373;28;20377;-63
2024/04/05 02:44:46;;;;;;;0.35;0.35;;;;;;;-139.19;100.00;56970.53;5072499;28;20551;-63
2024/04/05 02:47:12;;;;;;;0.10;0.10;;;;;;;-139.19;100.00;56970.53;5065075;28;20432;-63
2024/04/05 02:49:37;;;;;;;0.10;0.10;;;;;;;-139.19;100.00;56970.53;5054024;28;20465;-63
2024/04/05 02:52:03;;;;;;;0.20;0.20;;;;;;;-139.19;100.00;56970.53;5053985;28;20056;-63
2024/04/05 02:54:28;;;;;;;0.08;0.08;;;;;;;-139.19;100.00;56970.53;5052907;28;20032;-63
2024/04/05 02:56:54;;;;;;;0.10;0.10;;;;;;;-139.19;100.00;56970.53;5069884;28;20464;-63
2024/04/05 02:59:19;;;;;;;0.65;0.40;;;;;;;-139.19;100.00;56970.53;5054115;28;20017;-63
2024/04/05 03:01:44;;;;;;;0.10;0.10;;;;;;;-139.19;100.00;56970.53;5062805;28;20032;-63
2024/04/05 03:04:10;;;;;;;0.10;0.10;;;;;;;-139.19;100.00;56970.53;5057022;28;20028;-63
2024/04/05 03:06:35;;;;;;;0.20;0.20;;;;;;;-139.19;100.00;56970.53;5071015;28;20029;-63
2024/04/05 03:09:00;;;;;;;0.00;0.00;;;;;;;-139.19;100.00;56970.53;5064728;28;20036;-63
2024/04/05 03:11:26;;;;;;;0.30;0.17;;;;;;;-139.19;100.00;56970.53;5053892;28;20028;-63
2024/04/05 03:13:51;;;;;;;0.38;0.35;;;;;;;-139.19;100.00;56970.53;5053687;28;20025;-63
2024/04/05 03:16:16;;;;;;;1.98;0.65;;;;;;;-139.19;100.00;56970.53;5061495;28;20074;-63
2024/04/05 03:18:42;;;;;;;0.00;0.00;;;;;;;-139.19;100.00;56970.53;5058215;28;20021;-63
2024/04/05 03:21:07;;;;;;;0.00;0.00;;;;;;;-139.19;100.00;56970.53;5058490;28;20049;-63
2024/04/05 03:23:32;;;;;;;0.25;0.25;;;;;;;-139.19;100.00;56970.53;5053542;28;20572;-63
2024/04/05 03:25:57;;;;;;;0.10;0.10;;;;;;;-139.19;100.00;56970.53;5072577;28;20028;-63
2024/04/05 03:28:23;;;;;;;0.00;0.00;;;;;;;-139.19;100.00;56970.53;5072795;28;20033;-63
2024/04/05 03:30:48;;;;;;;0.38;0.20;;;;;;;-139.19;100.00;56970.53;5071196;28;20035;-63
2024/04/05 03:33:13;;;;;;;0.00;0.00;;;;;;;-139.19;100.00;56970.53;5072768;28;20133;-63
2024/04/05 03:35:39;;;;;;;0.30;0.30;;;;;;;-139.19;100.00;56970.53;5066416;28;20483;-63
2024/04/05 03:38:05;;;;;;;0.10;0.10;;;;;;;-139.19;100.00;56970.53;5053279;28;20029;-62
2024/04/05 03:40:30;;;;;;;0.00;0.00;;;;;;;-139.19;100.00;56970.53;5054573;28;20032;-62
2024/04/05 03:42:56;;;;;;;0.00;0.00;;;;;;;-139.19;100.00;56970.53;5053163;28;20025;-63
2024/04/05 03:45:21;;;;;;;0.20;0.20;;;;;;;-139.19;100.00;56970.53;5053412;28;20048;-62
2024/04/05 03:47:46;;;;;;;0.17;0.17;;;;;;;-139.19;100.00;56970.53;5054226;28;20036;-63
2024/04/05 03:50:13;;;;;;;0.15;0.15;;;;;;;-139.19;100.00;56970.53;5060967;28;20039;-62
2024/04/05 03:52:38;;;;;;;0.17;0.15;;;;;;;-139.19;100.00;56970.53;5070460;28;20064;-63
2024/04/05 03:55:07;;;;;;;0.17;0.17;;;;;;;-139.19;100.00;56970.53;5072447;28;20059;-63
2024/04/05 03:57:32;;;;;;;0.08;0.08;;;;;;;-139.19;100.00;56970.53;5072722;28;20443;-62
2024/04/05 03:59:58;;;;;;;0.08;0.08;;;;;;;-139.19;100.00;56970.53;5072139;28;20029;-62
2024/04/05 04:02:24;;;;;;;0.10;0.10;;;;;;;-139.19;100.00;56970.53;5058331;28;20511;-62
2024/04/05 04:04:51;;;;;;;0.10;0.10;;;;;;;-139.19;100.00;56970.53;5054432;28;20029;-62
2024/04/05 04:07:16;;;;;;;3.45;0.63;;;;;;;-139.19;100.00;56970.53;5052875;28;20024;-63
2024/04/05 04:09:42;;;;;;;0.00;0.00;;;;;;;-139.19;100.00;56970.53;5052815;28;20036;-62
2024/04/05 04:12:08;;;;;;;0.15;0.15;;;;;;;-139.19;100.00;56970.53;5064541;28;20020;-62
2024/04/05 04:14:33;;;;;;;0.00;0.00;;;;;;;-139.19;100.00;56970.53;5072517;28;20514;-62
2024/04/05 04:16:58;;;;;;;0.13;0.13;;;;;;;-139.19;100.00;56970.53;5063067;28;20119;-62
2024/04/05 04:19:24;;;;;;;0.10;0.10;;;;;;;-139.19;100.00;56970.53;5065129;28;20033;-62
2024/04/05 04:21:49;;;;;;;0.30;0.30;;;;;;;-139.19;100.00;56970.53;5057949;28;20485;-62
2024/04/05 04:24:16;;;;;;;0.10;0.10;;;;;;;-139.19;100.00;56970.53;5056984;28;20104;-62
2024/04/05 04:26:41;;;;;;;0.10;0.10;;;;;;;-139.19;100.00;56970.53;5057032;28;20465;-62
2024/04/05 04:29:07;;;;;;;0.90;0.50;;;;;;;-139.19;100.00;56970.53;5056631;28;20079;-62
2024/04/05 04:31:33;;;;;;;0.15;0.15;;;;;;;-139.19;100.00;56970.53;5058327;28;20376;-62
2024/04/05 04:33:58;;;;;;;0.20;0.17;;;;;;;-139.19;100.00;56970.53;5059981;28;20036;-62
2024/04/05 04:36:24;;;;;;;0.10;0.10;;;;;;;-139.19;100.00;56970.53;5046074;28;20115;-63
2024/04/05 04:38:51;;;;;;;0.00;0.00;;;;;;;-139.19;100.00;56970.53;5064915;28;20024;-63
2024/04/05 04:41:17;;;;;;;0.98;0.60;;;;;;;-139.19;100.00;56970.53;5070843;28;20020;-63
2024/04/05 04:43:43;;;;;;;0.00;0.00;;;;;;;-139.19;100.00;56970.53;5057578;28;20017;-63
2024/04/05 04:46:12;;;;;;;0.00;0.00;;;;;;;-139.19;100.00;56970.53;5056663;28;20020;-63
2024/04/05 04:48:38;;;;;;;0.45;0.45;;;;;;;-139.19;100.00;56970.53;5056449;28;20366;-64
2024/04/05 04:51:04;;;;;;;0.10;0.10;;;;;;;-139.19;100.00;56970.53;5056387;28;20025;-64
2024/04/05 04:53:30;;;;;;;0.10;0.10;;;;;;;-139.19;100.00;56970.53;5056223;28;20043;-64
2024/04/05 04:55:55;;;;;;;0.30;0.30;;;;;;;-139.19;100.00;56970.53;5056279;28;20060;-64
2024/04/05 04:58:23;;;;;;;0.20;0.20;;;;;;;-139.19;100.00;56970.53;5056340;28;20037;-64
2024/04/05 05:00:49;;;;;;;0.00;0.00;;;;;;;-139.19;100.00;56970.53;5056459;28;20044;-64
2024/04/05 05:03:15;;;;;;;0.10;0.10;;;;;;;-139.19;100.00;56970.53;5055990;28;20044;-64
2024/04/05 05:05:40;;;;;;;0.10;0.10;;;;;;;-139.19;100.00;56970.53;5056059;28;20051;-64
2024/04/05 05:08:08;;;;;;;0.00;0.00;;;;;;;-139.19;100.00;56970.53;5056051;28;20029;-64
2024/04/05 05:10:33;;;;;;;0.20;0.20;;;;;;;-139.19;100.00;56970.53;5056084;28;20400;-64
2024/04/05 05:12:59;;;;;;;0.03;0.03;;;;;;;-139.19;100.00;56970.53;5056174;28;20104;-64
2024/04/05 05:15:26;;;;;;;2.67;1.23;;;;;;;-139.19;100.00;56970.53;5056202;28;20503;-63
2024/04/05 05:17:52;;;;;;;0.63;0.25;;;;;;;-139.19;100.00;56970.53;5056159;28;20526;-64
2024/04/05 05:20:21;;;;;;;0.10;0.10;;;;;;;-139.19;100.00;56970.53;5056129;28;20025;-64
2024/04/05 05:22:47;;;;;;;0.00;0.00;;;;;;;-139.19;100.00;56970.53;5056078;28;20396;-64
2024/04/05 05:25:13;;;;;;;0.10;0.10;;;;;;;-139.19;100.00;56970.53;5055836;28;20021;-64
2024/04/05 05:27:38;;;;;;;0.05;0.05;;;;;;;-139.19;100.00;56970.53;5055986;28;20033;-63
2024/04/05 05:30:04;;;;;;;0.05;0.05;;;;;;;-139.19;100.00;56970.53;5055007;28;20025;-64
2024/04/05 05:32:30;;;;;;;0.10;0.10;;;;;;;-139.19;100.00;56970.53;5055576;28;20039;-64
2024/04/05 05:34:55;;;;;;;0.10;0.10;;;;;;;-139.19;100.00;56970.53;5055757;28;20029;-64
2024/04/05 05:37:21;;;;;;;0.10;0.10;;;;;;;-139.19;100.00;56970.53;5055561;28;20036;-64
2024/04/05 05:39:47;;;;;;;0.15;0.15;;;;;;;-139.19;100.00;56970.53;5055814;28;20075;-64
2024/04/05 05:42:13;;;;;;;0.20;0.20;;;;;;;-139.19;100.00;56970.53;5055460;28;20025;-64
2024/04/05 05:44:38;;;;;;;0.80;0.80;;;;;;;-139.19;100.00;56970.53;5055661;28;20020;-64
2024/04/05 05:47:04;;;;;;;0.10;0.10;;;;;;;-139.19;100.00;56970.53;5055412;28;20516;-64
2024/04/05 05:49:29;;;;;;;0.05;0.05;;;;;;;-139.19;100.00;56970.53;5055306;28;20473;-64
2024/04/05 05:51:54;;;;;;;0.25;0.20;;;;;;;-139.19;100.00;56970.53;5055328;28;20076;-64
2024/04/05 05:54:20;;;;;;;0.30;0.30;;;;;;;-139.19;100.00;56970.53;5055138;28;20553;-64
2024/04/05 05:56:45;;;;;;;0.10;0.10;;;;;;;-139.19;100.00;56970.53;5055334;28;20117;-64
2024/04/05 05:59:11;;;;;;;0.05;0.05;;;;;;;-139.19;100.00;56970.53;5055398;28;20021;-64
2024/04/05 06:01:36;;;;;;;0.47;0.47;;;;;;;-139.19;100.00;56970.53;5055103;28;20025;-64
2024/04/05 06:04:03;;;;;;;0.17;0.17;;;;;;;-139.19;100.00;56970.53;5054879;28;20041;-64
2024/04/05 06:06:29;;;;;;;0.25;0.10;;;;;;;-139.19;100.00;56970.53;5055105;28;20025;-64
2024/04/05 06:08:54;;;;;;;0.20;0.20;;;;;;;-139.19;100.00;56970.53;5054920;28;20584;-64
2024/04/05 06:11:19;;;;;;;0.00;0.00;;;;;;;-139.19;100.00;56970.53;5054894;28;20033;-64
2024/04/05 06:13:45;;;;;;;0.52;0.52;;;;;;;-139.19;100.00;56970.53;5054862;28;20029;-64
2024/04/05 06:16:10;;;;;;;3.40;0.75;;;;;;;-139.19;100.00;56970.53;5054855;28;20033;-64
2024/04/05 06:18:35;;;;;;;0.35;0.35;;;;;;;-139.19;100.00;56970.53;5055048;28;20037;-64
2024/04/05 06:21:01;;;;;;;0.17;0.17;;;;;;;-139.19;100.00;56970.53;5054804;28;20104;-63
2024/04/05 06:23:26;;;;;;;0.30;0.28;;;;;;;-139.19;100.00;56970.53;5054674;28;20424;-64
2024/04/05 06:25:54;;;;;;;0.00;0.00;;;;;;;-139.19;100.00;56970.53;5054732;28;20040;-63
2024/04/05 06:28:19;;;;;;;1.10;0.40;;;;;;;-139.19;100.00;56970.53;5054563;28;20033;-63
2024/04/05 06:30:45;;;;;;;0.13;0.13;;;;;;;-139.19;100.00;56970.53;5054830;28;20095;-64
2024/04/05 06:33:10;;;;;;;1.17;0.95;;;;;;;-139.19;100.00;56970.53;5054460;28;20052;-63
2024/04/05 06:35:35;;;;;;;0.68;0.30;;;;;;;-139.19;100.00;56970.53;5054587;28;20027;-64
2024/04/05 06:38:01;;;;;;;0.88;0.80;;;;;;;-139.19;100.00;56970.53;5054296;28;20033;-64
2024/04/05 06:40:26;;;;;;;0.73;0.73;;;;;;;-139.19;100.00;56970.53;5054568;28;20025;-63
2024/04/05 06:42:51;;;;;;;0.90;0.88;;;;;;;-139.19;100.00;56970.53;5054308;28;20087;-64
2024/04/05 06:45:17;;;;;;;0.30;0.30;;;;;;;-139.19;100.00;56970.53;5054340;28;20512;-64
2024/04/05 06:47:42;;;;;;;0.40;0.22;;;;;;;-139.19;100.00;56970.53;5054247;28;20063;-64
2024/04/05 06:50:08;;;;;;;0.13;0.13;;;;;;;-139.19;100.00;56970.53;5054393;28;20480;-64
2024/04/05 06:52:33;;;;;;;0.55;0.32;;;;;;;-139.19;100.00;56970.53;5054154;28;20032;-64
2024/04/05 06:54:58;;;;;;;1.45;1.00;;;;;;;-139.19;100.00;56970.53;5054267;28;20060;-64
2024/04/05 06:57:24;;;;;;;0.30;0.30;;;;;;;-139.19;100.00;56970.53;5054075;28;20032;-64
2024/04/05 06:59:49;;;;;;;1.00;0.70;;;;;;;-139.19;100.00;56970.53;5053931;28;20509;-64
2024/04/05 07:02:16;;;;;;;0.43;0.43;;;;;;;-139.19;100.00;56970.53;5047619;28;20045;-63
2024/04/05 07:04:42;;;;;;;0.80;0.65;;;;;;;-139.19;100.00;56970.53;5033532;28;20021;-63
2024/04/05 07:07:08;;;;;;;0.17;0.17;;;;;;;-139.19;100.00;56970.53;5032909;28;20103;-64
2024/04/05 07:09:33;;;;;;;0.20;0.20;;;;;;;-139.19;100.00;56970.53;5049730;28;20133;-64
2024/04/05 07:12:04;;;;;;;0.50;0.50;;;;;;;-139.19;100.00;56970.53;5053443;28;20039;-64
2024/04/05 07:14:29;;;;;;;1.00;0.40;;;;;;;-139.19;100.00;56970.53;5039353;28;20106;-64
2024/04/05 07:16:55;;;;;;;0.28;0.28;;;;;;;-139.19;100.00;56970.53;5049847;28;20056;-65
2024/04/05 07:19:21;;;;;;;0.10;0.10;;;;;;;-139.19;100.00;56970.53;5033842;28;20036;-65
2024/04/05 07:21:47;;;;;;;0.30;0.30;;;;;;;-139.19;100.00;56970.53;5033594;28;20068;-65
2024/04/05 07:24:13;;;;;;;0.80;0.80;;;;;;;-139.19;100.00;56970.53;5015582;28;20102;-65
2024/04/05 07:26:39;;;;;;;0.68;0.68;;;;;;;-139.19;100.00;56970.53;5044788;28;20473;-65
2024/04/05 07:29:05;;;;;;;0.57;0.57;;;;;;;-139.19;100.00;56970.53;5053281;28;20028;-65
2024/04/05 07:31:33;;;;;;;1.92;1.52;;;;;;;-139.19;100.00;56970.53;5047135;28;20428;-65
2024/04/05 07:33:58;;;;;;;1.52;1.10;;;;;;;-139.19;100.00;56970.53;5053459;28;20053;-65
2024/04/05 07:36:24;;;;;;;1.83;0.98;;;;;;;-139.19;100.00;56970.53;5053213;28;20455;-65
2024/04/05 07:38:50;;;;;;;0.50;0.50;;;;;;;-139.19;100.00;56970.53;5053218;28;20033;-65
2024/04/05 07:41:15;;;;;;;0.40;0.40;;;;;;;-139.19;100.00;56970.53;5035225;28;20470;-65
2024/04/05 07:43:41;;;;;;;0.70;0.57;;;;;;;-139.19;100.00;56970.53;5033245;28;20025;-65
2024/04/05 07:46:07;;;;;;;0.75;0.63;;;;;;;-139.19;100.00;56970.53;5033381;28;20053;-65
2024/04/05 07:48:33;;;;;;;0.95;0.38;;;;;;;-139.19;100.00;56970.53;5032951;28;20041;-65
2024/04/05 07:51:02;;;;;;;0.73;0.50;;;;;;;-139.19;100.00;56970.53;5033089;28;20029;-65
2024/04/05 07:53:27;;;;;;;0.90;0.55;;;;;;;-139.19;100.00;56970.53;5029428;28;20036;-65
2024/04/05 07:55:53;;;;;;;0.20;0.20;;;;;;;-139.19;100.00;56970.53;5033003;28;20037;-65
2024/04/05 07:58:19;;;;;;;0.52;0.30;;;;;;;-139.19;100.00;56970.53;5031197;28;20088;-65
2024/04/05 08:00:45;;;;;;;0.30;0.30;;;;;;;-139.19;100.00;56970.53;5032528;28;20032;-65
2024/04/05 08:03:11;;;;;;;0.10;0.10;;;;;;;-139.19;100.00;56970.53;5044000;28;20540;-65
2024/04/05 08:05:36;;;;;;;0.28;0.25;;;;;;;-139.19;100.00;56970.53;5052843;28;20100;-65
2024/04/05 08:08:02;;;;;;;1.05;0.75;;;;;;;-139.19;100.00;56970.53;5053025;28;20020;-65
2024/04/05 08:10:30;;;;;;;0.60;0.50;;;;;;;-139.19;100.00;56970.53;5039989;28;20029;-65
2024/04/05 08:12:56;;;;;;;0.17;0.17;;;;;;;-139.19;100.00;56970.53;5033147;28;20092;-65
2024/04/05 08:15:21;;;;;;;0.80;0.43;;;;;;;-139.19;100.00;56970.53;5032654;28;20127;-65
2024/04/05 08:17:47;;;;;;;1.35;0.80;;;;;;;-139.19;100.00;56970.53;5032947;28;20080;-65
2024/04/05 08:20:12;;;;;;;1.33;0.52;;;;;;;-139.19;100.00;56970.53;5036934;28;20551;-65
2024/04/05 08:22:37;;;;;;;1.33;0.80;;;;;;;-139.19;100.00;56970.53;5050094;28;20385;-65
2024/04/05 08:25:07;;;;;;;0.73;0.30;;;;;;;-139.19;100.00;56970.53;5035070;28;20017;-65
2024/04/05 08:27:33;;;;;;;1.10;0.70;;;;;;;-139.19;100.00;56970.53;5031779;28;20022;-65
2024/04/05 08:29:58;;;;;;;0.98;0.50;;;;;;;-139.19;100.00;56970.53;5034398;28;20017;-65
2024/04/05 08:32:24;;;;;;;0.47;0.47;;;;;;;-139.19;100.00;56970.53;5032969;28;20032;-65
2024/04/05 08:34:49;;;;;;;0.32;0.32;;;;;;;-139.19;100.00;56970.53;5032228;28;20029;-66
2024/04/05 08:37:14;;;;;;;0.20;0.20;;;;;;;-139.19;100.00;56970.53;5038203;28;20424;-65
2024/04/05 08:39:40;;;;;;;0.52;0.45;;;;;;;-139.19;100.00;56970.53;5039155;28;20021;-66
2024/04/05 08:42:11;;;;;;;0.40;0.40;;;;;;;-139.19;100.00;56970.53;5032659;28;20021;-65
2024/04/05 08:44:38;;;;;;;1.05;0.50;;;;;;;-139.19;100.00;56970.53;5040844;28;20078;-65
2024/04/05 08:47:05;;;;;;;1.02;0.70;;;;;;;-139.19;100.00;56970.53;5039175;28;20394;-66
2024/04/05 08:49:32;;;;;;;0.63;0.40;;;;;;;-139.19;100.00;56970.53;5030240;28;20033;-65
2024/04/05 08:51:58;;;;;;;0.52;0.45;;;;;;;-139.19;100.00;56970.53;5028272;28;20101;-65
2024/04/05 08:54:23;;;;;;;0.35;0.35;;;;;;;-139.19;100.00;56970.53;5038921;28;20033;-65
2024/04/05 08:56:50;;;;;;;0.45;0.45;;;;;;;-139.19;100.00;56970.53;5026914;28;20057;-65
2024/04/05 08:59:18;;;;;;;1.27;0.70;;;;;;;-139.19;100.00;56970.53;5031226;28;20153;-66
2024/04/05 09:01:47;;;;;;;0.63;0.40;;;;;;;-139.19;100.00;56970.53;5037742;28;20108;-65
2024/04/05 09:04:15;;;;;;;0.73;0.60;;;;;;;-139.19;100.00;56970.53;5030247;28;20059;-65
2024/04/05 09:06:41;;;;;;;1.23;0.60;;;;;;;-139.19;100.00;56970.53;5035993;28;20026;-65
2024/04/05 09:09:06;;;;;;;3.75;0.57;;;;;;;-139.19;100.00;56970.53;5046657;28;20519;-65
2024/04/05 09:11:31;;;;;;;0.25;0.25;;;;;;;-139.19;100.00;56970.53;5035500;28;20051;-65
2024/04/05 09:14:01;;;;;;;0.40;0.40;;;;;;;-139.19;100.00;56970.53;5035368;28;20033;-65
2024/04/05 09:16:27;;;;;;;0.35;0.35;;;;;;;-139.19;100.00;56970.53;5047383;28;20068;-65
2024/04/05 09:19:01;;;;;;;0.20;0.20;;;;;;;-139.19;100.00;56970.53;5029625;28;20049;-65
2024/04/05 09:21:27;;;;;;;1.05;0.80;;;;;;;-139.19;100.00;56970.53;5031927;28;20487;-65
2024/04/05 09:23:52;;;;;;;0.32;0.30;;;;;;;-139.19;100.00;56970.53;5051808;28;20029;-65
2024/04/05 09:26:19;;;;;;;0.57;0.35;;;;;;;-139.19;100.00;56970.53;5040212;28;20375;-63
2024/04/05 09:29:12;;;;;;;0.77;0.77;;;;;;;-139.19;100.00;56970.53;5030183;28;20038;-63
2024/04/05 09:31:37;;;;;;;1.05;0.50;;;;;;;-139.19;100.00;56970.53;5028607;28;20028;-63
2024/04/05 09:34:19;;;;;;;0.20;0.20;;;;;;;-139.19;100.00;56970.53;5036083;28;20021;-63
2024/04/05 09:36:45;;;;;;;0.20;0.20;;;;;;;-139.19;100.00;56970.53;5028693;28;20075;-63
2024/04/05 09:39:16;;;;;;;0.65;0.65;;;;;;;-139.19;100.00;56970.53;5035231;28;20025;-63
2024/04/05 09:41:42;;;;;;;0.13;0.13;;;;;;;-139.19;100.00;56970.53;5036854;28;20025;-64
2024/04/05 09:44:08;;;;;;;0.57;0.52;;;;;;;-139.19;100.00;56970.53;5044428;28;20108;-63
2024/04/05 09:46:35;;;;;;;0.63;0.40;;;;;;;-139.19;100.00;56970.53;5041560;28;20435;-63
2024/04/05 09:49:02;;;;;;;0.50;0.32;;;;;;;-139.19;100.00;56970.53;5035069;28;20100;-63
2024/04/05 09:51:44;;;;;;;0.30;0.30;;;;;;;-139.19;100.00;56970.53;5035520;28;20041;-63
2024/04/05 09:54:13;;;;;;;0.82;0.60;;;;;;;-139.19;100.00;56970.53;5034938;28;20075;-63
2024/04/05 09:56:45;;;;;;;0.70;0.60;;;;;;;-139.19;100.00;56970.53;5035170;28;20045;-63
2024/04/05 09:59:16;;;;;;;0.47;0.38;;;;;;;-139.19;100.00;56970.53;5046418;28;20035;-63
2024/04/05 10:01:44;;;;;;;0.50;0.50;;;;;;;-139.19;100.00;56970.53;5055137;28;20025;-63
2024/04/05 10:04:09;;;;;;;0.22;0.20;;;;;;;-139.19;100.00;56970.53;5037599;28;20116;-63
2024/04/05 10:06:38;;;;;;;0.43;0.43;;;;;;;-139.19;100.00;56970.53;5035023;28;20116;-63
2024/04/05 10:09:13;;;;;;;0.40;0.40;;;;;;;-139.19;100.00;56970.53;5043000;28;20021;-63
2024/04/05 10:11:40;;;;;;;0.20;0.20;;;;;;;-139.19;100.00;56970.53;5055105;28;20033;-63
2024/04/05 10:14:05;;;;;;;0.38;0.38;;;;;;;-139.19;100.00;56970.53;5054880;28;20037;-64
2024/04/05 10:16:31;;;;;;;0.60;0.50;;;;;;;-139.19;100.00;56970.53;5054239;28;20082;-63
2024/04/05 10:18:56;;;;;;;0.50;0.50;;;;;;;-139.19;100.00;56970.53;5054782;28;20125;-63
2024/04/05 10:21:32;;;;;;;0.70;0.45;;;;;;;-139.19;100.00;56970.53;5052575;28;20083;-63
2024/04/05 10:23:59;;;;;;;0.55;0.55;;;;;;;-139.19;100.00;56970.53;5034815;28;20053;-63
2024/04/05 10:26:24;;;;;;;0.45;0.43;;;;;;;-139.19;100.00;56970.53;5034409;28;20083;-63
2024/04/05 10:28:59;;;;;;;0.20;0.20;;;;;;;-139.19;100.00;56970.53;5034287;28;20456;-63
2024/04/05 10:31:25;;;;;;;0.47;0.47;;;;;;;-139.19;100.00;56970.53;5035219;28;20535;-63
2024/04/05 10:33:51;;;;;;;0.32;0.32;;;;;;;-139.19;100.00;56970.53;5048605;28;20037;-63
2024/04/05 10:36:16;;;;;;;0.60;0.40;;;;;;;-139.19;100.00;56970.53;5037843;28;20084;-64
2024/04/05 10:38:43;;;;;;;3.30;0.52;;;;;;;-139.19;100.00;56970.53;5037080;28;20103;-65
2024/04/05 10:41:08;;;;;;;0.28;0.28;;;;;;;-139.19;100.00;56970.53;5037220;28;20034;-65
2024/04/05 10:43:34;;;;;;;0.40;0.40;;;;;;;-139.19;100.00;56970.53;5028155;28;20036;-65
2024/04/05 10:46:01;;;;;;;1.65;0.90;;;;;;;-139.19;100.00;56970.53;5015096;28;20030;-65
2024/04/05 10:48:26;;;;;;;0.30;0.30;;;;;;;-139.19;100.00;56970.53;5030406;28;20071;-65
2024/04/05 10:50:53;;;;;;;0.65;0.52;;;;;;;-139.19;100.00;56970.53;5034934;28;20059;-64
2024/04/05 10:53:20;;;;;;;0.40;0.40;;;;;;;-139.19;100.00;56970.53;5031542;28;20124;-64
2024/04/05 10:55:46;;;;;;;0.20;0.20;;;;;;;-139.19;100.00;56970.53;5028363;28;20379;-64
2024/04/05 10:58:12;;;;;;;0.43;0.32;;;;;;;-139.19;100.00;56970.53;5032036;28;20032;-65
2024/04/05 11:00:38;;;;;;;0.20;0.20;;;;;;;-139.19;100.00;56970.53;5032942;28;20032;-64
2024/04/05 11:03:13;;;;;;;0.40;0.40;;;;;;;-139.19;100.00;56970.53;5032574;28;20043;-64
2024/04/05 11:05:39;;;;;;;0.93;0.43;;;;;;;-139.19;100.00;56970.53;5043063;28;20385;-65